createdAt,value
2022-08-07T00:02:37.252Z,40.12
2022-08-07T00:04:36.336Z,40.12
2022-08-07T00:07:15.981Z,40.59
2022-08-07T00:10:04.683Z,40.32
2022-08-07T00:12:56.923Z,40.37
2022-08-07T00:18:02.528Z,40.33
2022-08-07T00:20:40.373Z,40.72
2022-08-07T00:23:09.047Z,41.15
2022-08-07T00:25:41.503Z,40.80
2022-08-07T00:28:12.785Z,41.11
2022-08-07T00:33:26.607Z,40.02
2022-08-07T00:35:58.557Z,40.18
2022-08-07T00:38:31.812Z,40.57
2022-08-07T00:41:04.956Z,40.86
2022-08-07T00:44:02.024Z,41.05
2022-08-07T00:46:36.415Z,41.42
2022-08-07T00:49:09.210Z,41.63
2022-08-07T00:51:57.054Z,41.79
2022-08-07T00:54:30.832Z,42.68
2022-08-07T00:57:02.796Z,41.92
2022-08-07T00:59:37.296Z,41.85
2022-08-07T01:02:27.829Z,41.80
2022-08-07T01:05:01.082Z,41.92
2022-08-07T01:07:31.552Z,42.34
2022-08-07T01:10:06.252Z,42.42
2022-08-07T01:12:53.701Z,42.66
2022-08-07T01:18:10.156Z,42.43
2022-08-07T01:20:44.351Z,42.88
2022-08-07T01:23:37.897Z,42.35
2022-08-07T01:26:12.918Z,43.01
2022-08-07T01:28:45.940Z,42.97
2022-08-07T01:31:18.185Z,41.99
2022-08-07T01:33:55.610Z,43.43
2022-08-07T01:36:33.564Z,42.29
2022-08-07T01:39:10.204Z,42.15
2022-08-07T01:42:07.892Z,41.85
2022-08-07T01:44:47.950Z,42.70
2022-08-07T01:48:19.533Z,41.84
2022-08-07T01:50:10.941Z,42.69
2022-08-07T01:52:49.679Z,43.20
2022-08-07T01:58:28.912Z,42.86
2022-08-07T02:01:09.767Z,43.87
2022-08-07T02:06:32.947Z,42.78
2022-08-07T02:12:03.667Z,43.63
2022-08-07T02:17:06.222Z,44.23
2022-08-07T02:20:04.605Z,44.81
2022-08-07T02:25:13.721Z,45.27
2022-08-07T02:27:51.217Z,44.63
2022-08-07T02:30:22.976Z,44.01
2022-08-07T02:36:30.963Z,44.37
2022-08-07T02:38:22.717Z,44.92
2022-08-07T02:40:59.436Z,44.79
2022-08-07T02:43:29.826Z,44.08
2022-08-07T02:46:03.670Z,44.49
2022-08-07T02:48:34.436Z,43.88
2022-08-07T02:51:07.723Z,43.22
2022-08-07T02:54:09.809Z,44.76
2022-08-07T02:56:43.837Z,45.84
2022-08-07T02:59:24.164Z,45.41
2022-08-07T03:01:57.665Z,46.32
2022-08-07T03:04:31.533Z,46.37
2022-08-07T03:07:10.326Z,45.27
2022-08-07T03:09:49.380Z,44.03
2022-08-07T03:12:30.736Z,44.79
2022-08-07T03:15:02.486Z,44.97
2022-08-07T03:17:54.045Z,45.49
2022-08-07T03:20:25.038Z,45.11
2022-08-07T03:22:55.612Z,45.66
2022-08-07T03:28:37.366Z,45.11
2022-08-07T03:33:58.930Z,45.54
2022-08-07T03:36:33.014Z,45.09
2022-08-07T03:39:06.765Z,45.44
2022-08-07T03:41:42.006Z,44.61
2022-08-07T03:44:31.903Z,43.78
2022-08-07T03:47:13.854Z,43.71
2022-08-07T03:49:47.729Z,43.63
2022-08-07T03:55:17.843Z,44.00
2022-08-07T03:58:33.395Z,44.22
2022-08-07T04:03:49.500Z,43.85
2022-08-07T04:06:37.099Z,43.74
2022-08-07T04:09:06.366Z,43.69
2022-08-07T04:12:25.456Z,43.84
2022-08-07T04:14:37.983Z,43.66
2022-08-07T04:17:20.243Z,43.78
2022-08-07T04:19:56.805Z,43.84
2022-08-07T04:22:33.545Z,43.79
2022-08-07T04:25:08.877Z,44.32
2022-08-07T04:27:59.287Z,44.29
2022-08-07T04:30:39.319Z,44.54
2022-08-07T04:33:27.069Z,44.37
2022-08-07T04:36:17.864Z,44.40
2022-08-07T04:38:54.992Z,44.26
2022-08-07T04:41:27.304Z,44.04
2022-08-07T04:44:12.566Z,43.75
2022-08-07T04:47:04.261Z,44.06
2022-08-07T04:49:58.147Z,43.81
2022-08-07T04:52:51.127Z,43.93
2022-08-07T04:58:09.996Z,44.45
2022-08-07T04:58:49.650Z,44.22
2022-08-07T05:01:21.071Z,44.21
2022-08-07T05:04:08.856Z,44.31
2022-08-07T05:09:45.909Z,44.21
2022-08-07T05:12:26.859Z,44.35
2022-08-07T05:15:04.851Z,43.85
2022-08-07T05:17:51.643Z,43.87
2022-08-07T05:20:35.413Z,43.68
2022-08-07T05:23:15.613Z,43.78
2022-08-07T05:26:10.925Z,43.73
2022-08-07T05:28:48.453Z,43.67
2022-08-07T05:31:22.236Z,44.02
2022-08-07T05:34:04.611Z,43.54
2022-08-07T05:36:39.152Z,43.77
2022-08-07T05:40:07.157Z,44.48
2022-08-07T05:42:05.270Z,43.44
2022-08-07T05:44:52.836Z,43.13
2022-08-07T05:48:00.311Z,43.51
2022-08-07T05:50:31.373Z,43.99
2022-08-07T05:54:13.487Z,43.62
2022-08-07T05:56:06.082Z,43.63
2022-08-07T05:58:39.207Z,42.57
2022-08-07T06:01:11.761Z,41.62
2022-08-07T06:03:53.372Z,40.86
2022-08-07T06:09:22.794Z,40.43
2022-08-07T06:12:17.566Z,41.22
2022-08-07T06:14:52.118Z,40.07
2022-08-07T06:17:30.550Z,40.01
2022-08-07T06:20:25.415Z,38.38
2022-08-07T06:23:46.645Z,38.84
2022-08-07T06:28:28.574Z,37.91
2022-08-07T06:33:30.247Z,36.46
2022-08-07T06:36:12.937Z,37.35
2022-08-07T06:38:58.875Z,39.69
2022-08-07T06:42:01.732Z,39.45
2022-08-07T06:44:34.086Z,40.37
2022-08-07T06:49:59.636Z,37.98
2022-08-07T06:52:36.465Z,38.37
2022-08-07T06:57:47.694Z,37.36
2022-08-07T07:00:26.582Z,37.79
2022-08-07T07:02:58.178Z,38.24
2022-08-07T07:10:54.653Z,37.78
2022-08-07T07:13:55.338Z,37.26
2022-08-07T07:16:30.452Z,35.16
2022-08-07T07:19:54.712Z,35.47
2022-08-07T07:22:11.762Z,37.74
2022-08-07T07:24:58.359Z,36.20
2022-08-07T07:27:35.606Z,34.61
2022-08-07T07:30:37.832Z,35.31
2022-08-07T07:36:04.141Z,36.72
2022-08-07T07:41:11.126Z,34.27
2022-08-07T07:43:47.836Z,34.01
2022-08-07T07:46:54.231Z,34.85
2022-08-07T07:50:36.254Z,34.20
2022-08-07T07:52:25.757Z,33.29
2022-08-07T07:55:04.538Z,32.82
2022-08-07T07:58:06.518Z,31.75
2022-08-07T08:00:35.842Z,32.79
2022-08-07T08:03:16.989Z,31.57
2022-08-07T08:08:37.011Z,32.79
2022-08-07T08:13:54.548Z,29.97
2022-08-07T08:22:17.363Z,31.26
2022-08-07T08:25:24.988Z,28.95
2022-08-07T08:28:10.644Z,29.83
2022-08-07T08:30:51.014Z,31.69
2022-08-07T08:33:33.138Z,31.29
2022-08-07T08:36:04.667Z,30.18
2022-08-07T08:38:41.402Z,28.69
2022-08-07T08:41:31.487Z,27.78
2022-08-07T08:44:29.312Z,25.55
2022-08-07T08:47:11.274Z,27.64
2022-08-07T08:50:02.447Z,28.47
2022-08-07T08:52:51.610Z,28.30
2022-08-07T08:55:54.371Z,27.47
2022-08-07T08:58:54.606Z,27.49
2022-08-07T09:01:29.763Z,28.03
2022-08-07T09:04:17.106Z,27.66
2022-08-07T09:07:01.672Z,26.58
2022-08-07T09:16:21.572Z,25.85
2022-08-07T09:19:07.283Z,25.15
2022-08-07T09:22:39.379Z,26.03
2022-08-07T09:25:17.931Z,27.30
2022-08-07T09:30:55.022Z,29.51
2022-08-07T09:33:57.954Z,28.77
2022-08-07T09:36:37.323Z,28.50
2022-08-07T09:39:27.481Z,26.38
2022-08-07T09:42:17.215Z,26.18
2022-08-07T09:47:27.671Z,26.85
2022-08-07T09:48:01.233Z,25.74
2022-08-07T09:50:35.762Z,26.00
2022-08-07T09:53:12.502Z,22.66
2022-08-07T09:56:03.290Z,22.70
2022-08-07T09:58:57.958Z,22.80
2022-08-07T10:01:53.779Z,23.82
2022-08-07T10:04:38.062Z,22.83
2022-08-07T10:10:21.323Z,23.34
2022-08-07T10:13:15.751Z,25.00
2022-08-07T10:16:31.021Z,23.87
2022-08-07T10:19:23.515Z,24.55
2022-08-07T10:22:15.583Z,23.17
2022-08-07T10:25:01.248Z,23.58
2022-08-07T10:27:45.853Z,25.11
2022-08-07T10:30:47.837Z,24.84
2022-08-07T10:34:05.951Z,24.89
2022-08-07T10:39:19.515Z,22.74
2022-08-07T10:42:09.225Z,24.42
2022-08-07T10:44:59.970Z,23.40
2022-08-07T10:47:53.906Z,22.76
2022-08-07T10:50:34.405Z,24.57
2022-08-07T10:53:12.778Z,23.56
2022-08-07T10:55:55.963Z,23.57
2022-08-07T10:58:59.648Z,25.11
2022-08-07T11:02:04.740Z,24.50
2022-08-07T11:05:14.723Z,21.39
2022-08-07T11:07:58.809Z,24.01
2022-08-07T11:10:40.012Z,21.25
2022-08-07T11:14:45.763Z,21.44
2022-08-07T11:16:40.569Z,22.66
2022-08-07T11:19:21.450Z,24.02
2022-08-07T11:24:55.239Z,22.82
2022-08-07T11:28:01.326Z,22.76
2022-08-07T11:30:41.990Z,23.71
2022-08-07T11:33:58.698Z,22.49
2022-08-07T11:36:13.916Z,22.48
2022-08-07T11:38:55.644Z,23.20
2022-08-07T11:42:01.595Z,21.42
2022-08-07T11:44:35.459Z,21.32
2022-08-07T11:47:09.962Z,21.57
2022-08-07T11:50:32.990Z,20.92
2022-08-07T11:53:01.681Z,21.46
2022-08-07T11:56:15.490Z,21.05
2022-08-07T12:01:59.479Z,21.50
2022-08-07T12:04:46.663Z,21.21
2022-08-07T12:07:26.938Z,22.43
2022-08-07T12:10:05.851Z,23.06
2022-08-07T12:12:41.641Z,23.50
2022-08-07T12:15:17.141Z,24.41
2022-08-07T12:18:16.585Z,23.09
2022-08-07T12:24:07.707Z,22.34
2022-08-07T12:26:49.598Z,22.93
2022-08-07T12:29:37.177Z,23.55
2022-08-07T12:32:16.357Z,23.68
2022-08-07T12:42:32.314Z,20.72
2022-08-07T12:45:08.018Z,20.84
2022-08-07T12:47:54.742Z,19.92
2022-08-07T12:54:02.675Z,20.83
2022-08-07T12:56:43.129Z,21.84
2022-08-07T12:59:24.384Z,20.76
2022-08-07T13:02:25.041Z,20.20
2022-08-07T13:05:10.341Z,21.41
2022-08-07T13:11:06.740Z,20.37
2022-08-07T13:13:48.097Z,22.39
2022-08-07T13:16:27.084Z,21.71
2022-08-07T13:19:04.544Z,22.46
2022-08-07T13:21:57.555Z,21.52
2022-08-07T13:24:43.988Z,20.08
2022-08-07T13:30:19.654Z,21.07
2022-08-07T13:33:06.691Z,20.78
2022-08-07T13:36:05.364Z,19.96
2022-08-07T13:38:37.972Z,18.51
2022-08-07T13:46:49.522Z,18.94
2022-08-07T13:50:32.956Z,18.74
2022-08-07T13:52:31.779Z,19.38
2022-08-07T13:55:04.909Z,19.93
2022-08-07T13:57:38.961Z,18.09
2022-08-07T14:03:14.306Z,18.52
2022-08-07T14:05:59.845Z,17.70
2022-08-07T14:08:33.568Z,19.70
2022-08-07T14:11:14.483Z,17.59
2022-08-07T14:13:57.076Z,18.77
2022-08-07T14:20:42.000Z,18.79
2022-08-07T14:22:34.571Z,17.69
2022-08-07T14:25:11.129Z,18.18
2022-08-07T14:28:11.493Z,19.74
2022-08-07T14:30:40.615Z,19.58
2022-08-07T14:33:16.410Z,18.86
2022-08-07T14:35:56.023Z,18.86
2022-08-07T14:38:31.417Z,19.23
2022-08-07T14:41:05.982Z,18.55
2022-08-07T14:43:58.262Z,18.21
2022-08-07T14:46:38.154Z,17.42
2022-08-07T14:49:56.789Z,17.39
2022-08-07T14:52:23.359Z,18.32
2022-08-07T14:54:59.659Z,18.09
2022-08-07T14:57:54.639Z,17.63
2022-08-07T15:00:31.153Z,17.48
2022-08-07T15:03:19.339Z,18.04
2022-08-07T15:05:54.876Z,18.06
2022-08-07T15:08:50.345Z,17.69
2022-08-07T15:14:22.304Z,16.80
2022-08-07T15:16:55.966Z,17.96
2022-08-07T15:22:31.461Z,18.69
2022-08-07T15:25:17.521Z,19.24
2022-08-07T15:28:32.124Z,19.32
2022-08-07T15:31:05.135Z,20.81
2022-08-07T15:33:42.989Z,20.80
2022-08-07T15:36:13.573Z,22.14
2022-08-07T15:39:10.633Z,21.31
2022-08-07T15:44:51.933Z,19.91
2022-08-07T15:50:03.830Z,19.93
2022-08-07T15:52:37.412Z,20.72
2022-08-07T15:55:11.615Z,17.80
2022-08-07T15:57:49.450Z,18.53
2022-08-07T16:00:35.163Z,18.62
2022-08-07T16:05:48.693Z,17.78
2022-08-07T16:10:58.651Z,16.62
2022-08-07T16:14:03.164Z,16.78
2022-08-07T16:22:54.915Z,17.07
2022-08-07T16:25:54.141Z,18.00
2022-08-07T16:30:07.781Z,17.45
2022-08-07T16:31:50.820Z,17.86
2022-08-07T16:34:33.724Z,17.30
2022-08-07T16:38:05.229Z,16.13
2022-08-07T16:41:01.707Z,17.36
2022-08-07T16:47:16.353Z,16.47
2022-08-07T16:50:26.873Z,17.36
2022-08-07T16:53:48.347Z,16.99
2022-08-07T16:56:13.312Z,18.04
2022-08-07T16:59:11.294Z,17.30
2022-08-07T17:01:41.774Z,16.83
2022-08-07T17:04:15.443Z,16.02
2022-08-07T17:07:16.702Z,16.24
2022-08-07T17:10:05.980Z,16.45
2022-08-07T17:12:52.854Z,17.96
2022-08-07T17:15:44.499Z,17.63
2022-08-07T17:18:29.439Z,16.87
2022-08-07T17:20:59.589Z,17.08
2022-08-07T17:23:37.050Z,17.50
2022-08-07T17:26:23.324Z,17.09
2022-08-07T17:29:09.037Z,17.56
2022-08-07T17:32:02.513Z,17.03
2022-08-07T17:34:43.695Z,18.69
2022-08-07T17:38:05.715Z,17.96
2022-08-07T17:40:44.656Z,18.45
2022-08-07T17:44:01.621Z,18.57
2022-08-07T17:46:40.221Z,18.79
2022-08-07T17:49:23.376Z,19.26
2022-08-07T17:55:12.953Z,20.26
2022-08-07T18:00:34.753Z,20.64
2022-08-07T18:04:04.141Z,21.65
2022-08-07T18:10:04.683Z,21.12
2022-08-07T18:12:30.217Z,22.62
2022-08-07T18:15:08.786Z,22.82
2022-08-07T18:18:39.941Z,23.38
2022-08-07T18:21:04.455Z,23.80
2022-08-07T18:23:42.069Z,24.35
2022-08-07T18:30:06.735Z,24.42
2022-08-07T18:32:21.235Z,25.30
2022-08-07T18:35:04.362Z,25.54
2022-08-07T18:40:42.807Z,26.74
2022-08-07T18:43:36.856Z,26.58
2022-08-07T18:46:27.510Z,27.52
2022-08-07T18:50:05.526Z,27.35
2022-08-07T18:52:51.941Z,27.63
2022-08-07T18:58:51.341Z,28.37
2022-08-07T19:02:18.841Z,28.60
2022-08-07T19:04:57.712Z,29.11
2022-08-07T19:07:51.998Z,29.79
2022-08-07T19:10:49.837Z,29.79
2022-08-07T19:17:00.561Z,30.58
2022-08-07T19:19:32.105Z,31.64
2022-08-07T19:22:14.873Z,31.91
2022-08-07T19:24:52.780Z,32.29
2022-08-07T19:31:00.841Z,32.00
2022-08-07T19:33:15.388Z,32.78
2022-08-07T19:36:03.133Z,32.88
2022-08-07T19:38:41.495Z,32.24
2022-08-07T19:41:44.533Z,32.47
2022-08-07T19:47:30.968Z,32.03
2022-08-07T19:52:58.234Z,34.38
2022-08-07T19:55:56.603Z,34.10
2022-08-07T19:58:28.370Z,34.19
2022-08-07T20:03:36.422Z,33.79
2022-08-07T20:06:15.335Z,33.73
2022-08-07T20:09:04.316Z,34.53
2022-08-07T20:12:22.928Z,34.49
2022-08-07T20:14:53.658Z,34.49
2022-08-07T20:17:31.504Z,34.19
2022-08-07T20:20:09.566Z,34.98
2022-08-07T20:22:50.445Z,35.96
2022-08-07T20:25:26.135Z,36.89
2022-08-07T20:28:12.184Z,36.42
2022-08-07T20:31:01.033Z,34.00
2022-08-07T20:33:48.187Z,33.44
2022-08-07T20:36:32.028Z,29.44
2022-08-07T20:39:31.147Z,33.90
2022-08-07T20:42:09.651Z,34.51
2022-08-07T20:44:52.977Z,34.50
2022-08-07T20:50:20.662Z,33.32
2022-08-07T20:52:55.541Z,36.34
2022-08-07T20:55:37.240Z,37.09
2022-08-07T21:00:57.211Z,36.97
2022-08-07T21:06:28.143Z,36.79
2022-08-07T21:09:13.641Z,37.21
2022-08-07T21:11:50.491Z,36.15
2022-08-07T21:14:32.047Z,36.99
2022-08-07T21:20:29.509Z,37.35
2022-08-07T21:23:30.763Z,37.67
2022-08-07T21:26:10.416Z,37.46
2022-08-07T21:34:32.059Z,37.78
2022-08-07T21:37:07.198Z,37.96
2022-08-07T21:39:54.900Z,37.89
2022-08-07T21:42:42.303Z,38.13
2022-08-07T21:46:07.725Z,38.43
2022-08-07T21:48:29.012Z,37.50
2022-08-07T21:51:20.442Z,38.07
2022-08-07T21:53:56.301Z,38.13
2022-08-07T21:56:49.188Z,38.62
2022-08-07T21:59:25.448Z,38.97
2022-08-07T22:02:07.098Z,38.84
2022-08-07T22:04:53.454Z,39.45
2022-08-07T22:10:05.873Z,39.78
2022-08-07T22:12:39.885Z,39.15
2022-08-07T22:16:38.396Z,39.39
2022-08-07T22:18:12.957Z,38.94
2022-08-07T22:20:53.006Z,38.72
2022-08-07T22:23:27.803Z,38.82
2022-08-07T22:26:05.803Z,38.51
2022-08-07T22:32:00.042Z,38.34
2022-08-07T22:34:49.775Z,38.58
2022-08-07T22:40:30.465Z,38.24
2022-08-07T22:43:08.150Z,38.64
2022-08-07T22:46:21.288Z,37.06
2022-08-07T22:49:09.425Z,38.01
2022-08-07T22:51:57.631Z,37.29
2022-08-07T22:54:48.965Z,37.35
2022-08-07T22:57:42.405Z,37.94
2022-08-07T23:00:17.089Z,37.85
2022-08-07T23:03:10.912Z,36.47
2022-08-07T23:06:09.606Z,37.90
2022-08-07T23:08:53.046Z,38.30
2022-08-07T23:11:41.593Z,38.68
2022-08-07T23:14:37.565Z,38.38
2022-08-07T23:17:45.180Z,38.79
2022-08-07T23:20:55.985Z,39.36
2022-08-07T23:24:06.857Z,38.65
2022-08-07T23:26:50.331Z,39.78
2022-08-07T23:30:36.228Z,39.56
2022-08-07T23:34:34.330Z,39.77
2022-08-07T23:35:50.206Z,40.17
2022-08-07T23:38:42.733Z,38.68
2022-08-07T23:41:33.417Z,40.37
2022-08-07T23:44:24.809Z,40.79
2022-08-07T23:50:30.153Z,39.93
2022-08-07T23:53:08.591Z,39.38
2022-08-07T23:55:55.530Z,39.37
2022-08-07T23:58:38.612Z,39.49
